sensor_id;sensor_type;location;lat;lon;timestamp;P1;durP1;ratioP1;P2;durP2;ratioP2
60665;SDS011;59128;44.642;21.188;2023-06-22T00:00:49;16.58;;;12.85;;
60665;SDS011;59128;44.642;21.188;2023-06-22T00:03:17;18.90;;;13.35;;
60665;SDS011;59128;44.642;21.188;2023-06-22T00:05:43;13.55;;;11.77;;
60665;SDS011;59128;44.642;21.188;2023-06-22T00:08:09;17.38;;;12.45;;
60665;SDS011;59128;44.642;21.188;2023-06-22T00:10:35;16.90;;;11.98;;
60665;SDS011;59128;44.642;21.188;2023-06-22T00:13:01;16.65;;;11.90;;
60665;SDS011;59128;44.642;21.188;2023-06-22T00:15:28;17.92;;;12.50;;
60665;SDS011;59128;44.642;21.188;2023-06-22T00:17:54;14.20;;;12.45;;
60665;SDS011;59128;44.642;21.188;2023-06-22T00:20:22;16.45;;;12.77;;
60665;SDS011;59128;44.642;21.188;2023-06-22T00:22:48;17.25;;;12.63;;
60665;SDS011;59128;44.642;21.188;2023-06-22T00:25:14;19.35;;;14.35;;
60665;SDS011;59128;44.642;21.188;2023-06-22T00:27:40;18.02;;;13.27;;
60665;SDS011;59128;44.642;21.188;2023-06-22T00:30:06;26.08;;;16.33;;
60665;SDS011;59128;44.642;21.188;2023-06-22T00:32:32;32.05;;;19.00;;
60665;SDS011;59128;44.642;21.188;2023-06-22T00:34:58;42.33;;;24.63;;
60665;SDS011;59128;44.642;21.188;2023-06-22T00:37:25;55.38;;;28.73;;
60665;SDS011;59128;44.642;21.188;2023-06-22T00:39:54;77.50;;;37.00;;
60665;SDS011;59128;44.642;21.188;2023-06-22T00:42:20;76.82;;;37.03;;
60665;SDS011;59128;44.642;21.188;2023-06-22T00:44:46;50.97;;;29.20;;
60665;SDS011;59128;44.642;21.188;2023-06-22T00:47:13;41.08;;;22.90;;
60665;SDS011;59128;44.642;21.188;2023-06-22T00:49:41;29.65;;;20.42;;
60665;SDS011;59128;44.642;21.188;2023-06-22T00:52:07;46.90;;;29.42;;
60665;SDS011;59128;44.642;21.188;2023-06-22T00:54:38;30.58;;;20.65;;
60665;SDS011;59128;44.642;21.188;2023-06-22T00:57:04;22.85;;;18.13;;
60665;SDS011;59128;44.642;21.188;2023-06-22T00:59:35;27.00;;;20.08;;
60665;SDS011;59128;44.642;21.188;2023-06-22T01:02:02;25.23;;;19.33;;
60665;SDS011;59128;44.642;21.188;2023-06-22T01:04:34;26.30;;;19.15;;
60665;SDS011;59128;44.642;21.188;2023-06-22T01:07:25;24.98;;;18.58;;
60665;SDS011;59128;44.642;21.188;2023-06-22T01:10:00;23.55;;;17.25;;
60665;SDS011;59128;44.642;21.188;2023-06-22T01:12:30;24.48;;;16.88;;
60665;SDS011;59128;44.642;21.188;2023-06-22T01:15:02;23.35;;;16.77;;
60665;SDS011;59128;44.642;21.188;2023-06-22T01:17:31;22.30;;;16.42;;
60665;SDS011;59128;44.642;21.188;2023-06-22T01:19:57;19.52;;;15.85;;
60665;SDS011;59128;44.642;21.188;2023-06-22T01:22:26;24.08;;;17.52;;
60665;SDS011;59128;44.642;21.188;2023-06-22T01:27:38;24.38;;;16.20;;
60665;SDS011;59128;44.642;21.188;2023-06-22T01:30:10;21.75;;;16.42;;
60665;SDS011;59128;44.642;21.188;2023-06-22T01:32:38;22.35;;;16.42;;
60665;SDS011;59128;44.642;21.188;2023-06-22T01:35:05;26.42;;;19.05;;
60665;SDS011;59128;44.642;21.188;2023-06-22T01:37:32;27.52;;;18.40;;
60665;SDS011;59128;44.642;21.188;2023-06-22T01:39:59;25.42;;;18.92;;
60665;SDS011;59128;44.642;21.188;2023-06-22T01:42:26;30.02;;;19.02;;
60665;SDS011;59128;44.642;21.188;2023-06-22T01:44:53;28.35;;;19.35;;
60665;SDS011;59128;44.642;21.188;2023-06-22T01:47:22;35.40;;;24.48;;
60665;SDS011;59128;44.642;21.188;2023-06-22T01:49:49;33.30;;;22.33;;
60665;SDS011;59128;44.642;21.188;2023-06-22T01:52:16;36.38;;;22.52;;
60665;SDS011;59128;44.642;21.188;2023-06-22T01:54:43;31.63;;;21.08;;
60665;SDS011;59128;44.642;21.188;2023-06-22T01:57:09;30.75;;;21.17;;
60665;SDS011;59128;44.642;21.188;2023-06-22T02:00:21;34.60;;;22.30;;
60665;SDS011;59128;44.642;21.188;2023-06-22T02:02:21;27.67;;;18.55;;
60665;SDS011;59128;44.642;21.188;2023-06-22T02:04:58;29.15;;;17.83;;
60665;SDS011;59128;44.642;21.188;2023-06-22T02:07:27;22.88;;;15.65;;
60665;SDS011;59128;44.642;21.188;2023-06-22T02:09:54;17.05;;;14.90;;
60665;SDS011;59128;44.642;21.188;2023-06-22T02:12:21;15.40;;;13.75;;
60665;SDS011;59128;44.642;21.188;2023-06-22T02:14:48;17.80;;;13.85;;
60665;SDS011;59128;44.642;21.188;2023-06-22T02:17:16;19.30;;;15.32;;
60665;SDS011;59128;44.642;21.188;2023-06-22T02:19:42;21.20;;;16.92;;
60665;SDS011;59128;44.642;21.188;2023-06-22T02:22:08;25.80;;;19.23;;
60665;SDS011;59128;44.642;21.188;2023-06-22T02:24:34;27.05;;;19.13;;
60665;SDS011;59128;44.642;21.188;2023-06-22T02:27:00;23.27;;;18.70;;
60665;SDS011;59128;44.642;21.188;2023-06-22T02:29:27;22.77;;;17.70;;
60665;SDS011;59128;44.642;21.188;2023-06-22T02:31:54;23.70;;;16.85;;
60665;SDS011;59128;44.642;21.188;2023-06-22T02:34:21;22.08;;;17.67;;
60665;SDS011;59128;44.642;21.188;2023-06-22T02:36:47;25.98;;;18.40;;
60665;SDS011;59128;44.642;21.188;2023-06-22T02:39:18;19.60;;;16.90;;
60665;SDS011;59128;44.642;21.188;2023-06-22T02:41:45;23.15;;;17.58;;
60665;SDS011;59128;44.642;21.188;2023-06-22T02:44:11;24.60;;;18.60;;
60665;SDS011;59128;44.642;21.188;2023-06-22T02:46:37;42.28;;;27.52;;
60665;SDS011;59128;44.642;21.188;2023-06-22T02:49:03;31.10;;;21.83;;
60665;SDS011;59128;44.642;21.188;2023-06-22T02:51:30;27.92;;;20.08;;
60665;SDS011;59128;44.642;21.188;2023-06-22T02:53:56;18.95;;;14.02;;
60665;SDS011;59128;44.642;21.188;2023-06-22T02:56:22;19.08;;;13.52;;
60665;SDS011;59128;44.642;21.188;2023-06-22T02:58:50;15.85;;;12.40;;
60665;SDS011;59128;44.642;21.188;2023-06-22T03:01:16;12.98;;;11.63;;
60665;SDS011;59128;44.642;21.188;2023-06-22T03:03:48;13.80;;;11.75;;
60665;SDS011;59128;44.642;21.188;2023-06-22T03:06:14;13.50;;;12.10;;
60665;SDS011;59128;44.642;21.188;2023-06-22T03:08:40;11.35;;;10.02;;
60665;SDS011;59128;44.642;21.188;2023-06-22T03:11:09;11.30;;;9.25;;
60665;SDS011;59128;44.642;21.188;2023-06-22T03:13:35;12.07;;;9.38;;
60665;SDS011;59128;44.642;21.188;2023-06-22T03:16:01;13.18;;;8.75;;
60665;SDS011;59128;44.642;21.188;2023-06-22T03:18:27;9.32;;;8.43;;
60665;SDS011;59128;44.642;21.188;2023-06-22T03:20:53;9.77;;;8.88;;
60665;SDS011;59128;44.642;21.188;2023-06-22T03:23:19;11.75;;;9.93;;
60665;SDS011;59128;44.642;21.188;2023-06-22T03:25:45;12.02;;;9.02;;
60665;SDS011;59128;44.642;21.188;2023-06-22T03:28:11;12.75;;;9.48;;
60665;SDS011;59128;44.642;21.188;2023-06-22T03:30:37;11.95;;;8.60;;
60665;SDS011;59128;44.642;21.188;2023-06-22T03:33:03;10.13;;;8.20;;
60665;SDS011;59128;44.642;21.188;2023-06-22T03:35:29;12.55;;;8.60;;
60665;SDS011;59128;44.642;21.188;2023-06-22T03:37:56;9.87;;;8.17;;
60665;SDS011;59128;44.642;21.188;2023-06-22T03:40:22;10.25;;;8.65;;
60665;SDS011;59128;44.642;21.188;2023-06-22T03:42:48;9.45;;;8.50;;
60665;SDS011;59128;44.642;21.188;2023-06-22T03:45:14;9.45;;;8.45;;
60665;SDS011;59128;44.642;21.188;2023-06-22T03:47:40;12.57;;;8.73;;
60665;SDS011;59128;44.642;21.188;2023-06-22T03:50:06;10.43;;;8.60;;
60665;SDS011;59128;44.642;21.188;2023-06-22T03:52:32;9.13;;;8.23;;
60665;SDS011;59128;44.642;21.188;2023-06-22T03:54:59;9.40;;;8.35;;
60665;SDS011;59128;44.642;21.188;2023-06-22T03:57:25;11.13;;;8.23;;
60665;SDS011;59128;44.642;21.188;2023-06-22T03:59:51;10.13;;;8.38;;
60665;SDS011;59128;44.642;21.188;2023-06-22T04:02:17;8.23;;;7.43;;
60665;SDS011;59128;44.642;21.188;2023-06-22T04:04:43;8.48;;;7.35;;
60665;SDS011;59128;44.642;21.188;2023-06-22T04:07:09;8.98;;;7.28;;
60665;SDS011;59128;44.642;21.188;2023-06-22T04:09:35;8.35;;;7.65;;
60665;SDS011;59128;44.642;21.188;2023-06-22T04:12:01;8.07;;;7.30;;
60665;SDS011;59128;44.642;21.188;2023-06-22T04:14:28;9.77;;;7.47;;
60665;SDS011;59128;44.642;21.188;2023-06-22T04:16:54;8.07;;;7.28;;
60665;SDS011;59128;44.642;21.188;2023-06-22T04:19:20;8.43;;;7.32;;
60665;SDS011;59128;44.642;21.188;2023-06-22T04:21:46;7.75;;;6.88;;
60665;SDS011;59128;44.642;21.188;2023-06-22T04:24:13;7.80;;;7.10;;
60665;SDS011;59128;44.642;21.188;2023-06-22T04:26:39;7.80;;;7.00;;
60665;SDS011;59128;44.642;21.188;2023-06-22T04:29:07;9.65;;;7.25;;
60665;SDS011;59128;44.642;21.188;2023-06-22T04:31:36;12.43;;;7.47;;
60665;SDS011;59128;44.642;21.188;2023-06-22T04:34:03;8.38;;;6.60;;
60665;SDS011;59128;44.642;21.188;2023-06-22T04:36:36;9.83;;;7.10;;
60665;SDS011;59128;44.642;21.188;2023-06-22T04:39:10;7.45;;;6.57;;
60665;SDS011;59128;44.642;21.188;2023-06-22T04:41:36;10.02;;;6.95;;
60665;SDS011;59128;44.642;21.188;2023-06-22T04:44:13;11.07;;;7.30;;
60665;SDS011;59128;44.642;21.188;2023-06-22T04:46:46;9.60;;;7.70;;
60665;SDS011;59128;44.642;21.188;2023-06-22T04:49:18;10.33;;;7.57;;
60665;SDS011;59128;44.642;21.188;2023-06-22T04:51:44;8.73;;;7.85;;
60665;SDS011;59128;44.642;21.188;2023-06-22T04:54:11;10.48;;;7.43;;
60665;SDS011;59128;44.642;21.188;2023-06-22T04:56:37;10.75;;;7.53;;
60665;SDS011;59128;44.642;21.188;2023-06-22T04:59:05;10.67;;;7.97;;
60665;SDS011;59128;44.642;21.188;2023-06-22T05:01:31;8.85;;;7.40;;
60665;SDS011;59128;44.642;21.188;2023-06-22T05:03:59;11.67;;;7.87;;
60665;SDS011;59128;44.642;21.188;2023-06-22T05:06:26;8.25;;;7.35;;
60665;SDS011;59128;44.642;21.188;2023-06-22T05:08:56;9.18;;;7.13;;
60665;SDS011;59128;44.642;21.188;2023-06-22T05:11:23;9.02;;;7.43;;
60665;SDS011;59128;44.642;21.188;2023-06-22T05:13:49;8.63;;;7.15;;
60665;SDS011;59128;44.642;21.188;2023-06-22T05:16:15;21.63;;;12.30;;
60665;SDS011;59128;44.642;21.188;2023-06-22T05:18:41;29.02;;;14.77;;
60665;SDS011;59128;44.642;21.188;2023-06-22T05:21:08;23.52;;;14.35;;
60665;SDS011;59128;44.642;21.188;2023-06-22T05:23:34;16.60;;;11.30;;
60665;SDS011;59128;44.642;21.188;2023-06-22T05:26:00;16.95;;;10.65;;
60665;SDS011;59128;44.642;21.188;2023-06-22T05:28:26;11.60;;;8.80;;
60665;SDS011;59128;44.642;21.188;2023-06-22T05:30:52;13.52;;;9.00;;
60665;SDS011;59128;44.642;21.188;2023-06-22T05:33:19;10.93;;;8.15;;
60665;SDS011;59128;44.642;21.188;2023-06-22T05:35:45;11.68;;;8.27;;
60665;SDS011;59128;44.642;21.188;2023-06-22T05:38:12;10.15;;;7.93;;
60665;SDS011;59128;44.642;21.188;2023-06-22T05:40:38;10.88;;;7.97;;
60665;SDS011;59128;44.642;21.188;2023-06-22T05:43:04;12.13;;;8.57;;
60665;SDS011;59128;44.642;21.188;2023-06-22T05:45:30;10.40;;;7.45;;
60665;SDS011;59128;44.642;21.188;2023-06-22T05:47:56;8.75;;;7.30;;
60665;SDS011;59128;44.642;21.188;2023-06-22T05:50:22;10.75;;;7.97;;
60665;SDS011;59128;44.642;21.188;2023-06-22T05:52:48;11.25;;;8.38;;
60665;SDS011;59128;44.642;21.188;2023-06-22T05:55:14;12.52;;;9.00;;
60665;SDS011;59128;44.642;21.188;2023-06-22T05:57:40;18.58;;;10.32;;
60665;SDS011;59128;44.642;21.188;2023-06-22T06:00:06;16.65;;;10.57;;
60665;SDS011;59128;44.642;21.188;2023-06-22T06:02:35;14.68;;;10.23;;
60665;SDS011;59128;44.642;21.188;2023-06-22T06:05:01;11.55;;;9.70;;
60665;SDS011;59128;44.642;21.188;2023-06-22T06:07:32;9.75;;;7.45;;
60665;SDS011;59128;44.642;21.188;2023-06-22T06:09:59;12.68;;;8.35;;
60665;SDS011;59128;44.642;21.188;2023-06-22T06:12:25;10.90;;;8.70;;
60665;SDS011;59128;44.642;21.188;2023-06-22T06:14:51;10.63;;;8.40;;
60665;SDS011;59128;44.642;21.188;2023-06-22T06:17:18;9.30;;;8.43;;
60665;SDS011;59128;44.642;21.188;2023-06-22T06:19:44;9.30;;;8.40;;
60665;SDS011;59128;44.642;21.188;2023-06-22T06:22:10;10.07;;;8.38;;
60665;SDS011;59128;44.642;21.188;2023-06-22T06:24:36;14.00;;;9.70;;
60665;SDS011;59128;44.642;21.188;2023-06-22T06:27:02;11.43;;;10.02;;
60665;SDS011;59128;44.642;21.188;2023-06-22T06:29:30;10.95;;;9.85;;
60665;SDS011;59128;44.642;21.188;2023-06-22T06:31:56;11.75;;;10.20;;
60665;SDS011;59128;44.642;21.188;2023-06-22T06:34:22;11.75;;;9.65;;
60665;SDS011;59128;44.642;21.188;2023-06-22T06:36:48;13.10;;;10.43;;
60665;SDS011;59128;44.642;21.188;2023-06-22T06:39:14;12.00;;;10.90;;
60665;SDS011;59128;44.642;21.188;2023-06-22T06:41:41;11.43;;;10.25;;
60665;SDS011;59128;44.642;21.188;2023-06-22T06:44:07;12.10;;;10.35;;
60665;SDS011;59128;44.642;21.188;2023-06-22T06:46:33;12.73;;;10.20;;
60665;SDS011;59128;44.642;21.188;2023-06-22T06:48:59;11.35;;;10.10;;
60665;SDS011;59128;44.642;21.188;2023-06-22T06:51:25;11.35;;;10.15;;
60665;SDS011;59128;44.642;21.188;2023-06-22T06:53:51;12.85;;;9.80;;
60665;SDS011;59128;44.642;21.188;2023-06-22T06:56:18;10.13;;;8.98;;
60665;SDS011;59128;44.642;21.188;2023-06-22T06:58:44;10.30;;;9.30;;
60665;SDS011;59128;44.642;21.188;2023-06-22T07:01:13;10.95;;;9.75;;
60665;SDS011;59128;44.642;21.188;2023-06-22T07:03:39;10.45;;;9.15;;
60665;SDS011;59128;44.642;21.188;2023-06-22T07:06:05;10.88;;;9.60;;
60665;SDS011;59128;44.642;21.188;2023-06-22T07:08:31;10.57;;;8.77;;
60665;SDS011;59128;44.642;21.188;2023-06-22T07:10:57;10.80;;;9.82;;
60665;SDS011;59128;44.642;21.188;2023-06-22T07:13:23;9.98;;;9.10;;
60665;SDS011;59128;44.642;21.188;2023-06-22T07:15:49;21.52;;;9.55;;
60665;SDS011;59128;44.642;21.188;2023-06-22T07:18:15;23.02;;;9.80;;
60665;SDS011;59128;44.642;21.188;2023-06-22T07:20:41;10.35;;;9.27;;
60665;SDS011;59128;44.642;21.188;2023-06-22T07:23:08;11.82;;;9.25;;
60665;SDS011;59128;44.642;21.188;2023-06-22T07:25:34;11.52;;;9.07;;
60665;SDS011;59128;44.642;21.188;2023-06-22T07:28:01;9.35;;;8.27;;
60665;SDS011;59128;44.642;21.188;2023-06-22T07:30:28;9.52;;;8.60;;
60665;SDS011;59128;44.642;21.188;2023-06-22T07:32:54;10.13;;;8.40;;
60665;SDS011;59128;44.642;21.188;2023-06-22T07:35:20;9.80;;;8.90;;
60665;SDS011;59128;44.642;21.188;2023-06-22T07:37:46;10.25;;;8.75;;
60665;SDS011;59128;44.642;21.188;2023-06-22T07:40:12;10.80;;;9.70;;
60665;SDS011;59128;44.642;21.188;2023-06-22T07:42:38;11.05;;;7.95;;
60665;SDS011;59128;44.642;21.188;2023-06-22T07:45:05;8.90;;;8.00;;
60665;SDS011;59128;44.642;21.188;2023-06-22T07:47:33;9.30;;;8.48;;
60665;SDS011;59128;44.642;21.188;2023-06-22T07:50:00;10.75;;;8.10;;
60665;SDS011;59128;44.642;21.188;2023-06-22T07:52:30;9.23;;;8.32;;
60665;SDS011;59128;44.642;21.188;2023-06-22T07:54:56;10.27;;;8.02;;
60665;SDS011;59128;44.642;21.188;2023-06-22T07:57:22;7.68;;;6.78;;
60665;SDS011;59128;44.642;21.188;2023-06-22T07:59:48;8.02;;;7.28;;
60665;SDS011;59128;44.642;21.188;2023-06-22T08:02:14;9.70;;;7.45;;
60665;SDS011;59128;44.642;21.188;2023-06-22T08:04:40;8.15;;;7.28;;
60665;SDS011;59128;44.642;21.188;2023-06-22T08:07:07;8.73;;;6.85;;
60665;SDS011;59128;44.642;21.188;2023-06-22T08:09:33;8.07;;;6.85;;
60665;SDS011;59128;44.642;21.188;2023-06-22T08:11:59;7.03;;;6.40;;
60665;SDS011;59128;44.642;21.188;2023-06-22T08:14:26;15.55;;;6.90;;
60665;SDS011;59128;44.642;21.188;2023-06-22T08:16:52;9.65;;;6.45;;
60665;SDS011;59128;44.642;21.188;2023-06-22T08:19:18;8.05;;;5.80;;
60665;SDS011;59128;44.642;21.188;2023-06-22T08:21:44;7.05;;;6.35;;
60665;SDS011;59128;44.642;21.188;2023-06-22T08:24:11;7.07;;;6.13;;
60665;SDS011;59128;44.642;21.188;2023-06-22T08:26:37;6.95;;;6.25;;
60665;SDS011;59128;44.642;21.188;2023-06-22T08:29:03;8.32;;;6.07;;
60665;SDS011;59128;44.642;21.188;2023-06-22T08:31:29;6.40;;;5.35;;
60665;SDS011;59128;44.642;21.188;2023-06-22T08:33:56;8.15;;;6.38;;
60665;SDS011;59128;44.642;21.188;2023-06-22T08:36:22;6.30;;;5.70;;
60665;SDS011;59128;44.642;21.188;2023-06-22T08:38:48;7.78;;;5.28;;
60665;SDS011;59128;44.642;21.188;2023-06-22T08:41:16;6.20;;;5.70;;
60665;SDS011;59128;44.642;21.188;2023-06-22T08:43:42;6.97;;;6.10;;
60665;SDS011;59128;44.642;21.188;2023-06-22T08:46:09;8.20;;;5.70;;
60665;SDS011;59128;44.642;21.188;2023-06-22T08:48:35;6.15;;;5.40;;
60665;SDS011;59128;44.642;21.188;2023-06-22T08:51:02;7.05;;;6.40;;
60665;SDS011;59128;44.642;21.188;2023-06-22T08:53:28;6.68;;;6.07;;
60665;SDS011;59128;44.642;21.188;2023-06-22T08:55:54;7.28;;;6.28;;
60665;SDS011;59128;44.642;21.188;2023-06-22T08:58:20;8.63;;;6.40;;
60665;SDS011;59128;44.642;21.188;2023-06-22T09:00:47;7.00;;;6.30;;
60665;SDS011;59128;44.642;21.188;2023-06-22T09:03:13;7.30;;;6.32;;
60665;SDS011;59128;44.642;21.188;2023-06-22T09:05:40;7.53;;;6.10;;
60665;SDS011;59128;44.642;21.188;2023-06-22T09:08:06;6.32;;;5.72;;
60665;SDS011;59128;44.642;21.188;2023-06-22T09:10:32;7.60;;;6.65;;
60665;SDS011;59128;44.642;21.188;2023-06-22T09:12:58;7.35;;;6.63;;
60665;SDS011;59128;44.642;21.188;2023-06-22T09:15:24;13.20;;;7.32;;
60665;SDS011;59128;44.642;21.188;2023-06-22T09:17:50;7.25;;;6.65;;
60665;SDS011;59128;44.642;21.188;2023-06-22T09:20:19;8.57;;;6.90;;
60665;SDS011;59128;44.642;21.188;2023-06-22T09:22:45;8.02;;;6.70;;
60665;SDS011;59128;44.642;21.188;2023-06-22T09:25:11;7.63;;;6.10;;
60665;SDS011;59128;44.642;21.188;2023-06-22T09:27:37;7.85;;;7.05;;
60665;SDS011;59128;44.642;21.188;2023-06-22T09:30:04;9.20;;;6.47;;
60665;SDS011;59128;44.642;21.188;2023-06-22T09:32:30;6.32;;;5.68;;
60665;SDS011;59128;44.642;21.188;2023-06-22T09:34:56;7.85;;;6.25;;
60665;SDS011;59128;44.642;21.188;2023-06-22T09:37:22;9.15;;;6.70;;
60665;SDS011;59128;44.642;21.188;2023-06-22T09:39:48;7.32;;;6.50;;
60665;SDS011;59128;44.642;21.188;2023-06-22T09:42:14;6.72;;;6.03;;
60665;SDS011;59128;44.642;21.188;2023-06-22T09:44:40;6.38;;;5.85;;
60665;SDS011;59128;44.642;21.188;2023-06-22T09:47:06;8.52;;;6.70;;
60665;SDS011;59128;44.642;21.188;2023-06-22T09:49:33;7.13;;;6.28;;
60665;SDS011;59128;44.642;21.188;2023-06-22T09:51:59;7.05;;;6.00;;
60665;SDS011;59128;44.642;21.188;2023-06-22T09:54:26;8.05;;;6.55;;
60665;SDS011;59128;44.642;21.188;2023-06-22T09:56:52;6.85;;;6.07;;
60665;SDS011;59128;44.642;21.188;2023-06-22T09:59:18;6.95;;;6.35;;
60665;SDS011;59128;44.642;21.188;2023-06-22T10:01:44;6.93;;;6.15;;
60665;SDS011;59128;44.642;21.188;2023-06-22T10:04:10;6.95;;;6.35;;
60665;SDS011;59128;44.642;21.188;2023-06-22T10:06:36;7.28;;;6.50;;
60665;SDS011;59128;44.642;21.188;2023-06-22T10:09:05;7.25;;;6.43;;
60665;SDS011;59128;44.642;21.188;2023-06-22T10:11:31;7.05;;;6.38;;
60665;SDS011;59128;44.642;21.188;2023-06-22T10:13:59;9.05;;;6.43;;
60665;SDS011;59128;44.642;21.188;2023-06-22T10:16:30;6.95;;;5.95;;
60665;SDS011;59128;44.642;21.188;2023-06-22T10:18:56;6.40;;;5.90;;
60665;SDS011;59128;44.642;21.188;2023-06-22T10:21:22;6.22;;;5.25;;
60665;SDS011;59128;44.642;21.188;2023-06-22T10:23:48;5.40;;;4.90;;
60665;SDS011;59128;44.642;21.188;2023-06-22T10:26:17;5.53;;;5.03;;
60665;SDS011;59128;44.642;21.188;2023-06-22T10:28:43;5.25;;;4.78;;
60665;SDS011;59128;44.642;21.188;2023-06-22T10:31:09;15.38;;;5.25;;
60665;SDS011;59128;44.642;21.188;2023-06-22T10:33:35;11.40;;;5.82;;
60665;SDS011;59128;44.642;21.188;2023-06-22T10:36:01;10.98;;;6.43;;
60665;SDS011;59128;44.642;21.188;2023-06-22T10:38:27;16.35;;;7.18;;
60665;SDS011;59128;44.642;21.188;2023-06-22T10:40:53;10.50;;;5.90;;
60665;SDS011;59128;44.642;21.188;2023-06-22T10:43:19;11.55;;;5.88;;
60665;SDS011;59128;44.642;21.188;2023-06-22T10:45:45;7.78;;;6.03;;
60665;SDS011;59128;44.642;21.188;2023-06-22T10:48:11;10.45;;;5.95;;
60665;SDS011;59128;44.642;21.188;2023-06-22T10:50:37;11.25;;;7.10;;
60665;SDS011;59128;44.642;21.188;2023-06-22T10:53:03;7.97;;;6.20;;
60665;SDS011;59128;44.642;21.188;2023-06-22T10:55:29;6.85;;;6.05;;
60665;SDS011;59128;44.642;21.188;2023-06-22T10:57:55;7.95;;;5.93;;
60665;SDS011;59128;44.642;21.188;2023-06-22T11:00:21;8.07;;;6.13;;
60665;SDS011;59128;44.642;21.188;2023-06-22T11:02:47;6.72;;;5.53;;
60665;SDS011;59128;44.642;21.188;2023-06-22T11:05:14;8.57;;;5.97;;
60665;SDS011;59128;44.642;21.188;2023-06-22T11:07:43;5.93;;;5.43;;
60665;SDS011;59128;44.642;21.188;2023-06-22T11:10:10;12.02;;;6.47;;
60665;SDS011;59128;44.642;21.188;2023-06-22T11:12:36;6.60;;;5.90;;
60665;SDS011;59128;44.642;21.188;2023-06-22T11:15:02;6.25;;;5.75;;
60665;SDS011;59128;44.642;21.188;2023-06-22T11:17:28;6.30;;;5.70;;
60665;SDS011;59128;44.642;21.188;2023-06-22T11:19:54;6.90;;;5.22;;
60665;SDS011;59128;44.642;21.188;2023-06-22T11:22:20;6.90;;;5.43;;
60665;SDS011;59128;44.642;21.188;2023-06-22T11:24:46;6.78;;;5.32;;
60665;SDS011;59128;44.642;21.188;2023-06-22T11:27:13;8.32;;;5.22;;
60665;SDS011;59128;44.642;21.188;2023-06-22T11:29:39;5.72;;;4.95;;
60665;SDS011;59128;44.642;21.188;2023-06-22T11:32:06;7.57;;;4.78;;
60665;SDS011;59128;44.642;21.188;2023-06-22T11:34:32;7.53;;;4.90;;
60665;SDS011;59128;44.642;21.188;2023-06-22T11:36:59;6.25;;;4.38;;
60665;SDS011;59128;44.642;21.188;2023-06-22T11:39:25;7.10;;;4.60;;
60665;SDS011;59128;44.642;21.188;2023-06-22T11:41:52;5.88;;;3.80;;
60665;SDS011;59128;44.642;21.188;2023-06-22T11:44:18;6.93;;;3.80;;
60665;SDS011;59128;44.642;21.188;2023-06-22T11:46:44;6.95;;;4.15;;
60665;SDS011;59128;44.642;21.188;2023-06-22T11:49:10;7.30;;;4.38;;
60665;SDS011;59128;44.642;21.188;2023-06-22T11:51:36;5.75;;;4.00;;
60665;SDS011;59128;44.642;21.188;2023-06-22T11:54:03;8.02;;;4.22;;
60665;SDS011;59128;44.642;21.188;2023-06-22T11:56:29;5.78;;;4.10;;
60665;SDS011;59128;44.642;21.188;2023-06-22T11:58:55;9.13;;;3.60;;
60665;SDS011;59128;44.642;21.188;2023-06-22T12:01:21;6.72;;;3.35;;
60665;SDS011;59128;44.642;21.188;2023-06-22T12:03:47;6.45;;;3.42;;
60665;SDS011;59128;44.642;21.188;2023-06-22T12:06:13;4.95;;;3.22;;
60665;SDS011;59128;44.642;21.188;2023-06-22T12:08:39;5.70;;;3.28;;
60665;SDS011;59128;44.642;21.188;2023-06-22T12:11:05;7.28;;;3.58;;
60665;SDS011;59128;44.642;21.188;2023-06-22T12:13:31;5.20;;;3.13;;
60665;SDS011;59128;44.642;21.188;2023-06-22T12:15:57;7.25;;;3.20;;
60665;SDS011;59128;44.642;21.188;2023-06-22T12:18:23;7.28;;;3.45;;
60665;SDS011;59128;44.642;21.188;2023-06-22T12:20:49;5.05;;;3.28;;
60665;SDS011;59128;44.642;21.188;2023-06-22T12:23:15;5.97;;;3.10;;
60665;SDS011;59128;44.642;21.188;2023-06-22T12:25:41;7.10;;;3.45;;
60665;SDS011;59128;44.642;21.188;2023-06-22T12:28:08;4.95;;;3.42;;
60665;SDS011;59128;44.642;21.188;2023-06-22T12:30:34;6.43;;;3.42;;
60665;SDS011;59128;44.642;21.188;2023-06-22T12:33:00;8.73;;;3.75;;
60665;SDS011;59128;44.642;21.188;2023-06-22T12:35:26;6.97;;;3.78;;
60665;SDS011;59128;44.642;21.188;2023-06-22T12:37:52;11.73;;;3.90;;
60665;SDS011;59128;44.642;21.188;2023-06-22T12:40:18;7.07;;;3.50;;
60665;SDS011;59128;44.642;21.188;2023-06-22T12:42:47;5.68;;;3.58;;
60665;SDS011;59128;44.642;21.188;2023-06-22T12:45:13;8.45;;;3.60;;
60665;SDS011;59128;44.642;21.188;2023-06-22T12:47:39;6.10;;;3.72;;
60665;SDS011;59128;44.642;21.188;2023-06-22T12:50:05;7.57;;;3.78;;
60665;SDS011;59128;44.642;21.188;2023-06-22T12:52:31;5.97;;;3.55;;
60665;SDS011;59128;44.642;21.188;2023-06-22T12:54:57;7.82;;;4.22;;
60665;SDS011;59128;44.642;21.188;2023-06-22T12:57:24;8.57;;;4.18;;
60665;SDS011;59128;44.642;21.188;2023-06-22T12:59:50;7.10;;;3.78;;
60665;SDS011;59128;44.642;21.188;2023-06-22T13:02:16;6.63;;;3.50;;
60665;SDS011;59128;44.642;21.188;2023-06-22T13:04:42;6.88;;;3.70;;
60665;SDS011;59128;44.642;21.188;2023-06-22T13:07:08;8.38;;;3.90;;
60665;SDS011;59128;44.642;21.188;2023-06-22T13:09:36;8.75;;;3.80;;
60665;SDS011;59128;44.642;21.188;2023-06-22T13:12:02;8.30;;;3.55;;
60665;SDS011;59128;44.642;21.188;2023-06-22T13:14:28;5.63;;;3.90;;
60665;SDS011;59128;44.642;21.188;2023-06-22T13:16:54;7.40;;;3.70;;
60665;SDS011;59128;44.642;21.188;2023-06-22T13:19:20;7.13;;;3.95;;
60665;SDS011;59128;44.642;21.188;2023-06-22T13:21:46;6.15;;;4.05;;
60665;SDS011;59128;44.642;21.188;2023-06-22T13:24:12;8.00;;;4.05;;
60665;SDS011;59128;44.642;21.188;2023-06-22T13:26:38;4.90;;;3.33;;
60665;SDS011;59128;44.642;21.188;2023-06-22T13:29:05;5.57;;;3.45;;
60665;SDS011;59128;44.642;21.188;2023-06-22T13:31:31;8.73;;;4.28;;
60665;SDS011;59128;44.642;21.188;2023-06-22T13:33:57;10.02;;;4.07;;
60665;SDS011;59128;44.642;21.188;2023-06-22T13:36:23;5.28;;;3.85;;
60665;SDS011;59128;44.642;21.188;2023-06-22T13:38:49;6.15;;;3.78;;
60665;SDS011;59128;44.642;21.188;2023-06-22T13:41:15;9.55;;;3.50;;
60665;SDS011;59128;44.642;21.188;2023-06-22T13:43:41;6.70;;;3.78;;
60665;SDS011;59128;44.642;21.188;2023-06-22T13:46:07;6.10;;;3.33;;
60665;SDS011;59128;44.642;21.188;2023-06-22T13:48:33;6.05;;;3.63;;
60665;SDS011;59128;44.642;21.188;2023-06-22T13:50:59;7.43;;;3.63;;
60665;SDS011;59128;44.642;21.188;2023-06-22T13:53:25;4.72;;;3.33;;
60665;SDS011;59128;44.642;21.188;2023-06-22T13:55:51;5.28;;;3.45;;
60665;SDS011;59128;44.642;21.188;2023-06-22T13:58:17;8.57;;;3.47;;
60665;SDS011;59128;44.642;21.188;2023-06-22T14:00:45;6.75;;;3.38;;
60665;SDS011;59128;44.642;21.188;2023-06-22T14:03:11;7.32;;;3.63;;
60665;SDS011;59128;44.642;21.188;2023-06-22T14:05:37;11.02;;;3.40;;
60665;SDS011;59128;44.642;21.188;2023-06-22T14:08:03;6.88;;;3.70;;
60665;SDS011;59128;44.642;21.188;2023-06-22T14:10:29;6.28;;;3.30;;
60665;SDS011;59128;44.642;21.188;2023-06-22T14:12:55;4.18;;;3.30;;
60665;SDS011;59128;44.642;21.188;2023-06-22T14:15:21;7.72;;;4.63;;
60665;SDS011;59128;44.642;21.188;2023-06-22T14:17:47;16.75;;;9.95;;
60665;SDS011;59128;44.642;21.188;2023-06-22T14:20:13;10.90;;;8.48;;
60665;SDS011;59128;44.642;21.188;2023-06-22T14:22:39;20.60;;;16.50;;
60665;SDS011;59128;44.642;21.188;2023-06-22T14:25:06;23.52;;;21.00;;